Regen radar Meer informatie rain snow radar


Bezoek onze andere website:

Template documentation
and downloads

And another site



METAR rapporten vliegvelden

   
EBAW - Antwerp
Gewijzigd: 19-06-2018 19:50
Grotendeels bewolkt  
Grotendeels bewolkt  
   Wind: ZW 9.3 km/h
Wind: ZW 9.3 km/h
Temperatuur: 20°C
Dauwpunt: 15°C
Vochtigheid: 73%
Barometer: 1024 hPa
Bewolking: Grotendeels bewolkt
Zicht: meer dan 10 km
Bewolking: Gedeeltelijk bewolkt 2200 ft,
Grotendeels bewolkt 3300 ft
EBAW 191750Z 23005KT 200V270 9999 SCT022 BKN033 20/15 Q1024 NOSIG
EBLG - Li├Ęge
Gewijzigd: 19-06-2018 19:50
Grotendeels bewolkt  
Grotendeels bewolkt  
   Wind: Westen 7.4 km/h
Wind: Westen 7.4 km/h
Temperatuur: 19°C
Dauwpunt: 16°C
Vochtigheid: 83%
Barometer: 1024 hPa
Bewolking: Grotendeels bewolkt
Zicht: meer dan 10 km
Bewolking: Licht bewolkt 1900 ft,
Grotendeels bewolkt 3400 ft
EBLG 191750Z 27004KT 9999 FEW019 BKN034 19/16 Q1024 NOSIG
EBCV - Mons/Bergen
Gewijzigd: 19-06-2018 19:55
Bewolking  
Bewolking  
   Wind: WZW 7.4 km/h
Wind: WZW 7.4 km/h
Temperatuur: 19°C
Dauwpunt: 16°C
Vochtigheid: 83%
Barometer: 1024 hPa
Bewolking: Bewolking
Zicht: meer dan 10 km
Bewolking: Bewolking 2600 ft
EBCV 191755Z AUTO 25004KT 9999 OVC026/// 19/16 Q1024 BLU
EHBK - Maastricht
Gewijzigd: 19-06-2018 19:55
Bewolking  
Bewolking  
   Wind: WZW 13 km/h
Wind: WZW 13 km/h
Temperatuur: 20°C
Dauwpunt: 16°C
Vochtigheid: 78%
Barometer: 1024 hPa
Bewolking: Bewolking
Zicht: meer dan 10 km
Bewolking: Bewolking 3300 ft
EHBK 191755Z AUTO 24007KT 210V270 9999 OVC033 20/16 Q1024 NOSIG
ELLX - Luxemburg
Gewijzigd: 19-06-2018 19:50
Grotendeels bewolkt  
Grotendeels bewolkt  
   Wind: WNW 9.3 km/h
Wind: WNW 9.3 km/h
Temperatuur: 20°C
Dauwpunt: 16°C
Vochtigheid: 78%
Barometer: 1025 hPa
Bewolking: Grotendeels bewolkt
Zicht: meer dan 10 km
Bewolking: Grotendeels bewolkt 3000 ft
ELLX 191750Z 30005KT 9999 BKN030 20/16 Q1025 NOSIG
EBOS - Oostende
Gewijzigd: 19-06-2018 19:50
Grotendeels bewolkt  
Grotendeels bewolkt  
   Wind: Westen 11.1 km/h
Wind: Westen 11.1 km/h
Temperatuur: 18°C
Dauwpunt: 14°C
Vochtigheid: 78%
Barometer: 1024 hPa
Bewolking: Grotendeels bewolkt
Zicht: meer dan 10 km
Bewolking: Gedeeltelijk bewolkt 2000 ft,
Grotendeels bewolkt 2800 ft
EBOS 191750Z 28006KT 9999 SCT020 BKN028 18/14 Q1024 NOSIG

Script ontwikkeld door  Saratoga-weather.org Aangepast voor de template door  Weerstation Leuven

U vindt ons ook hier:

Het Weer Aktueel

Weather Underground

Apparatuur in gebruik:

Weercomputer
apple

Webleverancier
weservit

apple

weservit